createdAt,value
2022-12-28T00:01:33.791Z,99889.25
2022-12-28T00:04:01.898Z,99889.91
2022-12-28T00:06:28.395Z,99880.31
2022-12-28T00:08:56.479Z,99869.75
2022-12-28T00:11:27.691Z,99870.59
2022-12-28T00:13:59.300Z,99858.38
2022-12-28T00:16:27.662Z,99847.91
2022-12-28T00:18:55.559Z,99858.28
2022-12-28T00:21:22.439Z,99829.38
2022-12-28T00:23:53.624Z,99826.03
2022-12-28T00:26:24.067Z,99825.00
2022-12-28T00:28:50.466Z,99810.97
2022-12-28T00:31:17.068Z,99810.06
2022-12-28T00:33:43.810Z,99805.63
2022-12-28T00:36:12.824Z,99810.88
2022-12-28T00:38:39.930Z,99802.84
2022-12-28T00:41:07.473Z,99813.25
2022-12-28T00:43:34.067Z,99809.88
2022-12-28T00:46:00.503Z,99806.34
2022-12-28T00:48:27.099Z,99812.28
2022-12-28T00:51:00.515Z,99813.09
2022-12-28T00:53:26.833Z,99820.72
2022-12-28T00:55:53.148Z,99810.25
2022-12-28T00:58:19.426Z,99807.50
2022-12-28T01:00:45.769Z,99798.81
2022-12-28T01:03:12.109Z,99789.97
2022-12-28T01:05:39.712Z,99786.56
2022-12-28T01:08:06.035Z,99779.69
2022-12-28T01:10:32.345Z,99778.91
2022-12-28T01:12:58.658Z,99791.22
2022-12-28T01:15:25.041Z,99786.09
2022-12-28T01:17:51.352Z,99789.69
2022-12-28T01:20:17.789Z,99779.38
2022-12-28T01:22:44.118Z,99772.50
2022-12-28T01:25:10.539Z,99752.59
2022-12-28T01:27:36.870Z,99742.19
2022-12-28T01:30:03.740Z,99724.88
2022-12-28T01:32:30.048Z,99734.53
2022-12-28T01:34:56.429Z,99728.47
2022-12-28T01:37:22.854Z,99718.00
2022-12-28T01:39:49.184Z,99718.94
2022-12-28T01:42:17.973Z,99704.16
2022-12-28T01:44:46.905Z,99712.75
2022-12-28T01:47:35.349Z,99704.16
2022-12-28T01:50:09.861Z,99706.66
2022-12-28T01:52:38.092Z,99696.13
2022-12-28T01:55:07.553Z,99683.97
2022-12-28T01:57:39.314Z,99679.56
2022-12-28T02:00:10.844Z,99680.47
2022-12-28T02:02:38.421Z,99676.00
2022-12-28T02:05:05.761Z,99664.66
2022-12-28T02:07:42.491Z,99655.22
2022-12-28T02:10:42.941Z,99650.75
2022-12-28T02:12:57.630Z,99660.31
2022-12-28T02:15:24.179Z,99648.09
2022-12-28T02:17:50.957Z,99642.06
2022-12-28T02:20:18.172Z,99637.72
2022-12-28T02:22:59.450Z,99619.56
2022-12-28T02:25:53.287Z,99626.56
2022-12-28T02:28:38.419Z,99603.78
2022-12-28T02:31:32.336Z,99600.44
2022-12-28T02:34:16.436Z,99590.84
2022-12-28T02:36:50.764Z,99603.94
2022-12-28T02:39:25.285Z,99574.34
2022-12-28T02:41:53.072Z,99575.19
2022-12-28T02:44:39.686Z,99555.97
2022-12-28T02:47:32.844Z,99561.19
2022-12-28T02:50:09.247Z,99555.81
2022-12-28T02:52:51.605Z,99561.13
2022-12-28T02:56:08.220Z,99548.91
2022-12-28T02:58:59.041Z,99534.88
2022-12-28T03:02:06.775Z,99537.44
2022-12-28T03:04:54.557Z,99524.34
2022-12-28T03:07:48.734Z,99529.28
2022-12-28T03:10:23.432Z,99535.31
2022-12-28T03:13:27.437Z,99520.44
2022-12-28T03:15:57.737Z,99517.59
2022-12-28T03:18:45.228Z,99504.34
2022-12-28T03:21:30.213Z,99507.69
2022-12-28T03:24:15.563Z,99492.75
2022-12-28T03:27:06.582Z,99485.66
2022-12-28T03:29:59.353Z,99475.88
2022-12-28T03:32:26.116Z,99483.53
2022-12-28T03:34:52.679Z,99475.50
2022-12-28T03:37:35.135Z,99463.41
2022-12-28T03:40:37.028Z,99472.88
2022-12-28T03:43:30.086Z,99471.75
2022-12-28T03:46:17.853Z,99455.03
2022-12-28T03:48:45.284Z,99469.66
2022-12-28T03:51:14.702Z,99441.72
2022-12-28T03:53:44.110Z,99431.97
2022-12-28T03:56:27.903Z,99447.88
2022-12-28T03:58:55.411Z,99435.47
2022-12-28T04:01:22.179Z,99428.47
2022-12-28T04:03:48.815Z,99423.22
2022-12-28T04:06:17.832Z,99422.38
2022-12-28T04:08:45.256Z,99410.88
2022-12-28T04:11:12.501Z,99407.31
2022-12-28T04:13:39.181Z,99389.00
2022-12-28T04:16:12.647Z,99396.84
2022-12-28T04:18:39.951Z,99386.22
2022-12-28T04:21:06.430Z,99398.25
2022-12-28T04:23:33.109Z,99400.84
2022-12-28T04:26:02.261Z,99405.25
2022-12-28T04:28:29.283Z,99399.94
2022-12-28T04:30:56.598Z,99392.94
2022-12-28T04:33:23.637Z,99383.28
2022-12-28T04:35:50.863Z,99384.22
2022-12-28T04:38:18.017Z,99377.19
2022-12-28T04:40:44.817Z,99378.97
2022-12-28T04:43:11.694Z,99369.50
2022-12-28T04:45:38.172Z,99364.25
2022-12-28T04:48:05.112Z,99373.88
2022-12-28T04:50:31.581Z,99370.50
2022-12-28T04:52:59.196Z,99362.63
2022-12-28T04:55:33.123Z,99372.19
2022-12-28T04:58:00.573Z,99361.78
2022-12-28T05:00:27.183Z,99362.56
2022-12-28T05:02:53.919Z,99351.16
2022-12-28T05:05:20.495Z,99350.41
2022-12-28T05:07:46.952Z,99360.63
2022-12-28T05:10:13.432Z,99351.06
2022-12-28T05:12:40.035Z,99357.06
2022-12-28T05:15:07.365Z,99349.91
2022-12-28T05:17:34.015Z,99340.25
2022-12-28T05:20:00.786Z,99326.16
2022-12-28T05:22:27.221Z,99340.09
2022-12-28T05:24:53.727Z,99360.94
2022-12-28T05:27:20.324Z,99345.88
2022-12-28T05:29:47.228Z,99341.41
2022-12-28T05:32:13.754Z,99357.97
2022-12-28T05:34:40.417Z,99339.63
2022-12-28T05:37:06.928Z,99337.78
2022-12-28T05:39:33.566Z,99321.03
2022-12-28T05:42:00.818Z,99329.66
2022-12-28T05:44:27.539Z,99334.00
2022-12-28T05:46:54.188Z,99347.09
2022-12-28T05:49:20.952Z,99328.75
2022-12-28T05:51:51.913Z,99348.69
2022-12-28T05:54:18.879Z,99330.28
2022-12-28T05:56:45.699Z,99318.84
2022-12-28T05:59:13.584Z,99319.59
2022-12-28T06:01:43.244Z,99315.97
2022-12-28T06:04:21.101Z,99315.81
2022-12-28T06:06:48.995Z,99299.06
2022-12-28T06:09:15.867Z,99305.84
2022-12-28T06:11:43.075Z,99312.09
2022-12-28T06:14:09.743Z,99301.53
2022-12-28T06:16:41.802Z,99319.88
2022-12-28T06:19:14.774Z,99321.50
2022-12-28T06:21:41.602Z,99311.66
2022-12-28T06:24:09.233Z,99319.28
2022-12-28T06:26:37.782Z,99314.78
2022-12-28T06:29:04.835Z,99327.09
2022-12-28T06:31:34.842Z,99316.50
2022-12-28T06:34:03.496Z,99322.50
2022-12-28T06:36:41.509Z,99317.34
2022-12-28T06:39:10.667Z,99313.63
2022-12-28T06:41:38.047Z,99328.34
2022-12-28T06:44:09.618Z,99321.25
2022-12-28T06:46:36.526Z,99308.88
2022-12-28T06:49:03.318Z,99315.72
2022-12-28T06:51:36.408Z,99305.19
2022-12-28T06:54:03.277Z,99309.41
2022-12-28T06:56:32.409Z,99323.31
2022-12-28T06:59:03.311Z,99308.22
2022-12-28T07:01:34.115Z,99309.09
2022-12-28T07:04:02.673Z,99294.00
2022-12-28T07:06:30.564Z,99301.72
2022-12-28T07:09:01.982Z,99292.13
2022-12-28T07:11:29.144Z,99301.50
2022-12-28T07:13:56.283Z,99291.78
2022-12-28T07:16:25.413Z,99302.28
2022-12-28T07:18:52.085Z,99291.63
2022-12-28T07:21:33.786Z,99302.28
2022-12-28T07:24:01.002Z,99308.97
2022-12-28T07:26:30.332Z,99289.75
2022-12-28T07:28:58.947Z,99312.34
2022-12-28T07:31:28.337Z,99300.06
2022-12-28T07:33:57.938Z,99301.69
2022-12-28T07:36:26.187Z,99297.16
2022-12-28T07:38:53.030Z,99290.91
2022-12-28T07:41:22.983Z,99295.31
2022-12-28T07:43:50.477Z,99306.56
2022-12-28T07:46:20.129Z,99302.91
2022-12-28T07:48:47.195Z,99293.94
2022-12-28T07:51:22.313Z,99290.38
2022-12-28T07:53:50.950Z,99300.69
2022-12-28T07:56:18.830Z,99306.72
2022-12-28T08:01:17.557Z,99306.44
2022-12-28T08:03:44.576Z,99317.72
2022-12-28T08:06:19.767Z,99323.78
2022-12-28T08:08:48.321Z,99318.38
2022-12-28T08:11:19.002Z,99311.25
2022-12-28T08:13:47.565Z,99319.78
2022-12-28T08:16:16.076Z,99317.06
2022-12-28T08:18:42.929Z,99306.41
2022-12-28T08:21:15.179Z,99319.41
2022-12-28T08:23:42.485Z,99319.16
2022-12-28T08:26:27.174Z,99314.84
2022-12-28T08:28:56.553Z,99317.19
2022-12-28T08:31:29.443Z,99314.66
2022-12-28T08:33:57.301Z,99314.47
2022-12-28T08:36:24.065Z,99300.41
2022-12-28T08:38:50.904Z,99317.88
2022-12-28T08:41:21.099Z,99302.03
2022-12-28T08:43:48.268Z,99293.94
2022-12-28T08:46:18.234Z,99297.41
2022-12-28T08:48:45.861Z,99297.25
2022-12-28T08:51:16.725Z,99297.25
2022-12-28T08:53:43.309Z,99312.72
2022-12-28T08:56:24.404Z,99297.13
2022-12-28T08:58:51.183Z,99294.16
2022-12-28T09:01:22.035Z,99294.06
2022-12-28T09:03:50.676Z,99311.50
2022-12-28T09:06:20.219Z,99296.47
2022-12-28T09:09:05.054Z,99300.81
2022-12-28T09:11:34.476Z,99300.63
2022-12-28T09:14:01.950Z,99298.84
2022-12-28T09:16:28.721Z,99315.34
2022-12-28T09:18:59.779Z,99299.56
2022-12-28T09:21:32.213Z,99305.69
2022-12-28T09:23:59.195Z,99303.84
2022-12-28T09:26:31.243Z,99314.13
2022-12-28T09:29:00.402Z,99302.81
2022-12-28T09:31:29.408Z,99302.72
2022-12-28T09:34:34.865Z,99307.97
2022-12-28T09:36:45.705Z,99321.94
2022-12-28T09:39:18.899Z,99308.69
2022-12-28T09:41:48.567Z,99302.59
2022-12-28T09:44:26.964Z,99305.03
2022-12-28T09:47:01.284Z,99314.59
2022-12-28T09:49:43.238Z,99310.28
2022-12-28T09:52:26.850Z,99313.78
2022-12-28T09:54:54.524Z,99310.94
2022-12-28T09:57:21.969Z,99291.72
2022-12-28T09:59:49.183Z,99297.63
2022-12-28T10:02:29.916Z,99299.59
2022-12-28T10:04:56.650Z,99291.41
2022-12-28T10:07:23.173Z,99292.19
2022-12-28T10:09:50.004Z,99293.97
2022-12-28T10:12:24.492Z,99276.41
2022-12-28T10:14:53.244Z,99279.78
2022-12-28T10:17:30.191Z,99284.84
2022-12-28T10:19:59.139Z,99276.88
2022-12-28T10:22:35.556Z,99286.53
2022-12-28T10:25:01.915Z,99278.56
2022-12-28T10:27:31.992Z,99277.72
2022-12-28T10:30:01.407Z,99267.22
2022-12-28T10:32:47.845Z,99266.19
2022-12-28T10:35:22.990Z,99265.13
2022-12-28T10:37:49.441Z,99259.56
2022-12-28T10:40:26.715Z,99257.97
2022-12-28T10:42:55.731Z,99258.53
2022-12-28T10:45:46.012Z,99270.09
2022-12-28T10:48:25.933Z,99269.81
2022-12-28T10:50:58.588Z,99263.59
2022-12-28T10:53:33.416Z,99261.06
2022-12-28T10:56:05.568Z,99259.28
2022-12-28T10:58:34.189Z,99267.72
2022-12-28T11:01:12.840Z,99249.50
2022-12-28T11:03:46.179Z,99253.72
2022-12-28T11:06:26.358Z,99251.94
2022-12-28T11:09:21.695Z,99244.16
2022-12-28T11:11:50.194Z,99242.06
2022-12-28T11:14:34.417Z,99247.63
2022-12-28T11:17:27.130Z,99238.06
2022-12-28T11:20:04.837Z,99231.84
2022-12-28T11:22:32.603Z,99223.78
2022-12-28T11:25:00.625Z,99229.97
2022-12-28T11:27:28.040Z,99226.41
2022-12-28T11:29:55.409Z,99222.16
2022-12-28T11:32:26.145Z,99216.91
2022-12-28T11:34:55.485Z,99212.50
2022-12-28T11:37:21.938Z,99223.97
2022-12-28T11:39:49.939Z,99224.69
2022-12-28T11:42:39.535Z,99219.66
2022-12-28T11:45:37.028Z,99213.44
2022-12-28T11:48:38.907Z,99211.78
2022-12-28T11:51:06.101Z,99209.69
2022-12-28T11:53:32.338Z,99207.88
2022-12-28T11:56:08.870Z,99206.28
2022-12-28T11:58:58.570Z,99196.63
2022-12-28T12:01:28.424Z,99192.00
2022-12-28T12:03:57.886Z,99195.38
2022-12-28T12:06:46.969Z,99199.97
2022-12-28T12:09:22.539Z,99190.31
2022-12-28T12:11:50.576Z,99185.78
2022-12-28T12:14:23.204Z,99185.06
2022-12-28T12:17:03.286Z,99185.91
2022-12-28T12:19:34.950Z,99179.59
2022-12-28T12:22:19.539Z,99171.19
2022-12-28T12:24:54.285Z,99179.59
2022-12-28T12:27:33.743Z,99166.56
2022-12-28T12:30:04.833Z,99159.38
2022-12-28T12:32:46.499Z,99160.25
2022-12-28T12:35:19.839Z,99159.38
2022-12-28T12:37:56.481Z,99154.88
2022-12-28T12:40:44.513Z,99163.41
2022-12-28T12:43:35.890Z,99148.69
2022-12-28T12:46:36.447Z,99151.31
2022-12-28T12:49:21.342Z,99151.84
2022-12-28T12:52:13.593Z,99145.09
2022-12-28T12:55:03.256Z,99160.06
2022-12-28T12:58:00.786Z,99142.56
2022-12-28T13:00:48.620Z,99155.72
2022-12-28T13:03:23.125Z,99148.38
2022-12-28T13:05:56.429Z,99152.06
2022-12-28T13:08:28.693Z,99137.09
2022-12-28T13:10:55.994Z,99142.19
2022-12-28T13:13:31.023Z,99137.88
2022-12-28T13:16:02.952Z,99131.66
2022-12-28T13:18:46.230Z,99129.84
2022-12-28T13:21:20.323Z,99116.81
2022-12-28T13:23:47.026Z,99122.81
2022-12-28T13:26:15.534Z,99124.50
2022-12-28T13:28:53.803Z,99113.25
2022-12-28T13:31:32.184Z,99108.94
2022-12-28T13:34:01.836Z,99103.53
2022-12-28T13:36:29.139Z,99107.88
2022-12-28T13:39:13.623Z,99109.13
2022-12-28T13:41:52.709Z,99109.97
2022-12-28T13:44:28.307Z,99097.66
2022-12-28T13:47:04.331Z,99108.28
2022-12-28T13:49:36.100Z,99123.00
2022-12-28T13:52:08.989Z,99109.03
2022-12-28T13:54:36.973Z,99104.72
2022-12-28T13:57:36.645Z,99110.72
2022-12-28T13:59:51.891Z,99115.34
2022-12-28T14:02:20.890Z,99114.47
2022-12-28T14:04:53.004Z,99125.09
2022-12-28T14:07:23.643Z,99106.69
2022-12-28T14:09:51.227Z,99117.97
2022-12-28T14:12:18.757Z,99116.16
2022-12-28T14:14:48.068Z,99098.69
2022-12-28T14:21:16.512Z,99091.84
2022-12-28T14:23:59.542Z,99085.75
2022-12-28T14:26:39.929Z,99072.91
2022-12-28T14:29:42.367Z,99070.47
2022-12-28T14:32:29.263Z,99064.28
2022-12-28T14:35:04.418Z,99048.50
2022-12-28T14:37:38.896Z,99041.75
2022-12-28T14:40:07.200Z,99064.50
2022-12-28T14:42:35.254Z,99053.84
2022-12-28T14:46:06.629Z,99054.16
2022-12-28T14:48:31.781Z,99054.81
2022-12-28T14:51:00.516Z,99040.69
2022-12-28T14:53:27.575Z,99041.56
2022-12-28T14:56:04.412Z,99042.59
2022-12-28T14:58:33.432Z,99038.94
2022-12-28T15:01:05.968Z,99031.13
2022-12-28T15:03:58.355Z,99031.13
2022-12-28T15:06:30.345Z,99023.91
2022-12-28T15:09:04.885Z,98997.38
2022-12-28T15:11:31.478Z,98998.22
2022-12-28T15:13:58.081Z,99006.22
2022-12-28T15:16:24.758Z,99007.16
2022-12-28T15:18:52.940Z,98999.19
2022-12-28T15:21:22.226Z,98993.16
2022-12-28T15:23:53.282Z,98999.28
2022-12-28T15:26:21.217Z,99001.16
2022-12-28T15:28:47.685Z,98986.13
2022-12-28T15:31:17.989Z,98980.13
2022-12-28T15:33:45.681Z,98986.13
2022-12-28T15:36:18.445Z,98974.84
2022-12-28T15:38:49.250Z,98977.47
2022-12-28T15:41:36.100Z,98974.66
2022-12-28T15:44:04.025Z,98970.13
2022-12-28T15:46:30.744Z,98962.22
2022-12-28T15:48:57.973Z,98966.56
2022-12-28T15:51:24.670Z,98942.91
2022-12-28T15:53:51.141Z,98926.16
2022-12-28T15:56:24.883Z,98952.56
2022-12-28T15:58:56.050Z,98941.94
2022-12-28T16:01:24.237Z,98922.56
2022-12-28T16:03:56.811Z,98919.31
2022-12-28T16:06:25.418Z,98917.50
2022-12-28T16:09:00.158Z,98914.16
2022-12-28T16:11:31.028Z,98922.78
2022-12-28T16:13:59.931Z,98922.06
2022-12-28T16:16:29.111Z,98912.38
2022-12-28T16:18:57.537Z,98897.44
2022-12-28T16:21:27.318Z,98915.13
2022-12-28T16:23:54.391Z,98901.97
2022-12-28T16:26:21.985Z,98904.69
2022-12-28T16:28:49.447Z,98906.47
2022-12-28T16:31:24.393Z,98882.19
2022-12-28T16:33:59.190Z,98885.69
2022-12-28T16:36:26.878Z,98882.91
2022-12-28T16:38:53.975Z,98875.88
2022-12-28T16:41:21.540Z,98871.56
2022-12-28T16:43:48.980Z,98870.72
2022-12-28T16:46:16.126Z,98864.50
2022-12-28T16:48:42.911Z,98853.88
2022-12-28T16:51:09.665Z,98855.59
2022-12-28T16:53:37.030Z,98842.31
2022-12-28T16:56:05.366Z,98846.63
2022-12-28T16:58:33.055Z,98841.25
2022-12-28T17:01:08.609Z,98833.34
2022-12-28T17:03:36.189Z,98840.22
2022-12-28T17:06:03.129Z,98836.72
2022-12-28T17:08:30.103Z,98838.31
2022-12-28T17:10:56.651Z,98825.06
2022-12-28T17:13:23.393Z,98815.47
2022-12-28T17:15:50.235Z,98820.63
2022-12-28T17:18:16.945Z,98821.47
2022-12-28T17:20:44.965Z,98811.78
2022-12-28T17:23:11.936Z,98816.81
2022-12-28T17:25:38.653Z,98794.00
2022-12-28T17:28:05.239Z,98793.03
2022-12-28T17:30:31.876Z,98791.25
2022-12-28T17:32:58.499Z,98793.88
2022-12-28T17:35:25.088Z,98784.31
2022-12-28T17:37:51.744Z,98765.81
2022-12-28T17:40:19.629Z,98770.94
2022-12-28T17:42:46.249Z,98771.78
2022-12-28T17:45:12.746Z,98764.63
2022-12-28T17:47:39.603Z,98779.34
2022-12-28T17:50:06.874Z,98767.97
2022-12-28T17:52:33.462Z,98766.31
2022-12-28T17:55:00.220Z,98757.56
2022-12-28T17:57:26.861Z,98752.66
2022-12-28T17:59:53.489Z,98754.75
2022-12-28T18:02:20.389Z,98732.38
2022-12-28T18:04:48.146Z,98735.34
2022-12-28T18:07:14.689Z,98738.41
2022-12-28T18:09:41.321Z,98737.88
2022-12-28T18:12:07.990Z,98733.06
2022-12-28T18:14:34.588Z,98728.97
2022-12-28T18:17:01.174Z,98740.56
2022-12-28T18:19:27.793Z,98727.97
2022-12-28T18:21:54.339Z,98713.34
2022-12-28T18:24:21.208Z,98705.59
2022-12-28T18:26:48.169Z,98704.13
2022-12-28T18:29:15.050Z,98706.13
2022-12-28T18:31:41.689Z,98701.81
2022-12-28T18:34:08.361Z,98695.94
2022-12-28T18:36:34.952Z,98715.38
2022-12-28T18:39:02.084Z,98692.69
2022-12-28T18:41:33.737Z,98689.22
2022-12-28T18:44:02.773Z,98689.41
2022-12-28T18:46:29.805Z,98674.72
2022-12-28T18:48:56.691Z,98680.06
2022-12-28T18:51:23.366Z,98681.22
2022-12-28T18:53:50.911Z,98680.31
2022-12-28T18:56:21.667Z,98670.00
2022-12-28T18:58:56.073Z,98656.97
2022-12-28T19:04:15.858Z,98666.53
2022-12-28T19:06:43.644Z,98650.78
2022-12-28T19:09:10.664Z,98636.16
2022-12-28T19:11:38.474Z,98651.09
2022-12-28T19:14:07.549Z,98643.22
2022-12-28T19:16:34.882Z,98646.06
2022-12-28T19:19:02.116Z,98639.03
2022-12-28T19:21:34.664Z,98632.22
2022-12-28T19:24:03.929Z,98625.16
2022-12-28T19:26:32.522Z,98623.28
2022-12-28T19:28:59.199Z,98621.47
2022-12-28T19:31:26.453Z,98612.03
2022-12-28T19:33:53.675Z,98619.09
2022-12-28T19:36:20.253Z,98606.66
2022-12-28T19:38:47.322Z,98596.25
2022-12-28T19:41:15.584Z,98595.44
2022-12-28T19:43:43.697Z,98600.69
2022-12-28T19:46:18.924Z,98591.00
2022-12-28T19:48:45.898Z,98577.78
2022-12-28T19:51:13.329Z,98567.25
2022-12-28T19:53:39.897Z,98577.78
2022-12-28T19:56:09.326Z,98568.94
2022-12-28T19:58:39.015Z,98577.88
2022-12-28T20:01:08.329Z,98556.66
2022-12-28T20:03:35.470Z,98590.59
2022-12-28T20:06:07.422Z,98573.13
2022-12-28T20:11:03.289Z,98566.09
2022-12-28T20:13:33.791Z,98560.00
2022-12-28T20:16:00.361Z,98565.78
2022-12-28T20:18:26.943Z,98562.41
2022-12-28T20:21:18.695Z,98546.66
2022-12-28T20:23:39.893Z,98549.16
2022-12-28T20:26:06.375Z,98549.16
2022-12-28T20:28:34.458Z,98573.66
2022-12-28T20:31:08.381Z,98541.41
2022-12-28T20:33:36.150Z,98544.75
2022-12-28T20:36:06.012Z,98550.94
2022-12-28T20:38:32.855Z,98535.69
2022-12-28T20:41:10.859Z,98536.75
2022-12-28T20:43:37.449Z,98537.38
2022-12-28T20:46:10.475Z,98522.69
2022-12-28T20:48:36.851Z,98526.25
2022-12-28T20:51:03.320Z,98529.03
2022-12-28T20:53:29.782Z,98504.69
2022-12-28T20:56:06.387Z,98524.84
2022-12-28T20:58:33.055Z,98516.00
2022-12-28T21:01:12.124Z,98514.44
2022-12-28T21:03:39.035Z,98515.69
2022-12-28T21:06:05.921Z,98521.75
2022-12-28T21:08:32.907Z,98518.09
2022-12-28T21:11:00.287Z,98520.94
2022-12-28T21:13:27.168Z,98507.44
2022-12-28T21:15:54.231Z,98516.19
2022-12-28T21:18:21.250Z,98505.56
2022-12-28T21:20:57.352Z,98516.78
2022-12-28T21:23:23.879Z,98505.00
2022-12-28T21:25:50.429Z,98510.25
2022-12-28T21:28:17.185Z,98494.38
2022-12-28T21:30:43.797Z,98490.78
2022-12-28T21:33:10.355Z,98495.72
2022-12-28T21:35:36.936Z,98488.53
2022-12-28T21:38:04.719Z,98490.94
2022-12-28T21:40:31.309Z,98486.41
2022-12-28T21:42:57.844Z,98474.94
2022-12-28T21:45:24.420Z,98487.84
2022-12-28T21:47:50.904Z,98465.75
2022-12-28T21:50:17.504Z,98473.41
2022-12-28T21:52:44.093Z,98473.50
2022-12-28T21:55:29.389Z,98462.53
2022-12-28T21:57:55.917Z,98473.75
2022-12-28T22:00:40.999Z,98464.00
2022-12-28T22:03:26.247Z,98473.44
2022-12-28T22:06:04.878Z,98469.72
2022-12-28T22:08:52.170Z,98472.13
2022-12-28T22:11:37.954Z,98477.28
2022-12-28T22:14:06.302Z,98473.31
2022-12-28T22:16:34.872Z,98459.81
2022-12-28T22:19:03.508Z,98470.13
2022-12-28T22:21:30.657Z,98449.78
2022-12-28T22:23:57.192Z,98463.53
2022-12-28T22:26:23.682Z,98458.78
2022-12-28T22:28:50.227Z,98455.09
2022-12-28T22:31:16.788Z,98436.28
2022-12-28T22:33:43.484Z,98443.38
2022-12-28T22:36:15.966Z,98436.06
2022-12-28T22:38:42.776Z,98424.22
2022-12-28T22:41:09.938Z,98438.81
2022-12-28T22:43:36.460Z,98436.06
2022-12-28T22:46:10.772Z,98426.34
2022-12-28T22:48:37.869Z,98427.66
2022-12-28T22:51:07.319Z,98430.19
2022-12-28T22:53:35.321Z,98433.28
2022-12-28T22:56:04.320Z,98424.28
2022-12-28T22:58:31.231Z,98434.72
2022-12-28T23:01:12.214Z,98425.03
2022-12-28T23:03:44.129Z,98421.31
2022-12-28T23:06:13.222Z,98421.91
2022-12-28T23:08:40.209Z,98412.91
2022-12-28T23:11:29.918Z,98411.25
2022-12-28T23:14:17.734Z,98423.19
2022-12-28T23:16:44.573Z,98413.38
2022-12-28T23:19:30.462Z,98425.59
2022-12-28T23:22:16.376Z,98426.28
2022-12-28T23:25:01.812Z,98412.03
2022-12-28T23:27:40.067Z,98409.53
2022-12-28T23:30:10.384Z,98404.16
2022-12-28T23:32:36.963Z,98383.69
2022-12-28T23:35:04.011Z,98381.97
2022-12-28T23:37:31.042Z,98386.31
2022-12-28T23:39:57.487Z,98365.94
2022-12-28T23:42:24.013Z,98369.44
2022-12-28T23:44:50.513Z,98377.19
2022-12-28T23:47:17.608Z,98356.25
2022-12-28T23:49:44.139Z,98354.31
2022-12-28T23:52:11.357Z,98363.88
2022-12-28T23:54:38.109Z,98371.78
2022-12-28T23:57:05.004Z,98377.78
2022-12-28T23:59:32.792Z,98360.88
